TimeCDT,TemperatureF,Dew PointF,Humidity,Sea Level PressureIn,VisibilityMPH,Wind Direction,Wind SpeedMPH,Gust SpeedMPH,PrecipitationIn,Events,Conditions,WindDirDegrees,DateUTC
12:15 AM,64.2,56.7,76,29.88,10.0,SSE,10.4,-,N/A,,Clear,150,2013-10-11 05:15:00
12:35 AM,64.2,56.5,76,29.88,10.0,SSE,9.2,-,N/A,,Clear,150,2013-10-11 05:35:00
12:55 AM,63.9,56.5,77,29.88,10.0,SSE,10.4,-,N/A,,Clear,150,2013-10-11 05:55:00
1:15 AM,62.8,56.3,79,29.88,10.0,SSE,5.8,-,N/A,,Clear,150,2013-10-11 06:15:00
1:55 AM,61.3,56.3,83,29.88,10.0,SSE,5.8,-,N/A,,Clear,150,2013-10-11 06:55:00
2:15 AM,61.2,56.3,84,29.88,10.0,SSE,4.6,-,N/A,,Clear,150,2013-10-11 07:15:00
2:35 AM,60.3,55.6,85,29.88,10.0,Calm,Calm,-,N/A,,Clear,0,2013-10-11 07:35:00
2:55 AM,60.4,55.8,85,29.87,10.0,Calm,Calm,-,N/A,,Clear,0,2013-10-11 07:55:00
3:15 AM,60.3,55.6,85,29.87,10.0,Calm,Calm,-,N/A,,Clear,0,2013-10-11 08:15:00
3:35 AM,60.1,55.6,85,29.87,10.0,SSE,3.5,-,N/A,,Clear,150,2013-10-11 08:35:00
3:55 AM,59.2,55.6,88,29.87,10.0,SSE,3.5,-,N/A,,Clear,150,2013-10-11 08:55:00
4:15 AM,58.6,55.6,90,29.87,10.0,SE,5.8,-,N/A,,Clear,140,2013-10-11 09:15:00
4:35 AM,59.2,56.1,90,29.87,10.0,SE,5.8,-,N/A,,Clear,130,2013-10-11 09:35:00
4:55 AM,59.2,56.1,90,29.87,10.0,SE,4.6,-,N/A,,Clear,140,2013-10-11 09:55:00
5:15 AM,58.8,55.8,90,29.89,10.0,Calm,Calm,-,N/A,,Clear,0,2013-10-11 10:15:00
5:35 AM,60.4,56.5,87,29.89,10.0,SSE,3.5,-,N/A,,Clear,150,2013-10-11 10:35:00
5:55 AM,59.5,57.2,92,29.89,10.0,SE,8.1,-,N/A,,Scattered Clouds,140,2013-10-11 10:55:00
6:15 AM,59.7,57.4,92,29.88,10.0,SSE,5.8,-,N/A,,Scattered Clouds,150,2013-10-11 11:15:00
6:35 AM,61.2,58.6,91,29.88,10.0,SSE,8.1,-,N/A,,Clear,150,2013-10-11 11:35:00
6:55 AM,61.9,59.4,91,29.87,10.0,SSE,8.1,-,N/A,,Clear,150,2013-10-11 11:55:00
7:15 AM,62.1,59.9,93,29.87,10.0,SSE,6.9,-,N/A,,Clear,150,2013-10-11 12:15:00
7:35 AM,62.6,60.3,92,29.87,10.0,SSE,6.9,-,N/A,,Clear,160,2013-10-11 12:35:00
7:55 AM,63.5,61.0,91,29.87,10.0,SSE,8.1,-,N/A,,Clear,160,2013-10-11 12:55:00
8:15 AM,64.6,61.9,91,29.87,10.0,SSE,8.1,-,N/A,,Clear,160,2013-10-11 13:15:00
8:35 AM,65.8,62.6,89,29.88,10.0,SSE,9.2,-,N/A,,Clear,160,2013-10-11 13:35:00
8:55 AM,66.4,63.0,89,29.88,10.0,South,9.2,-,N/A,,Mostly Cloudy,170,2013-10-11 13:55:00
9:15 AM,68.2,63.7,85,29.88,10.0,South,11.5,23.0,N/A,,Overcast,180,2013-10-11 14:15:00
9:35 AM,70.3,64.0,80,29.88,10.0,South,15.0,25.3,N/A,,Mostly Cloudy,190,2013-10-11 14:35:00
9:55 AM,72.1,64.4,77,29.88,10.0,South,17.3,27.6,N/A,,Mostly Cloudy,180,2013-10-11 14:55:00
10:15 AM,71.8,64.2,77,29.88,10.0,South,20.7,27.6,N/A,,Overcast,190,2013-10-11 15:15:00
10:35 AM,72.7,64.4,75,29.87,10.0,South,18.4,27.6,N/A,,Overcast,190,2013-10-11 15:35:00
10:55 AM,73.8,64.8,73,29.87,10.0,SSW,21.9,27.6,N/A,,Overcast,200,2013-10-11 15:55:00
11:15 AM,73.8,64.8,73,29.88,10.0,SSW,17.3,31.1,N/A,,Overcast,200,2013-10-11 16:15:00
11:35 AM,74.3,65.3,73,29.87,10.0,South,12.7,24.2,N/A,,Overcast,180,2013-10-11 16:35:00
11:55 AM,74.3,65.3,73,29.87,10.0,SSW,13.8,28.8,N/A,,Overcast,200,2013-10-11 16:55:00
12:15 PM,75.2,65.5,72,29.86,10.0,South,12.7,27.6,N/A,,Overcast,180,2013-10-11 17:15:00
12:35 PM,76.5,65.8,70,29.86,10.0,South,12.7,32.2,N/A,,Overcast,190,2013-10-11 17:35:00
12:55 PM,77.4,65.7,67,29.85,10.0,South,15.0,28.8,N/A,,Overcast,190,2013-10-11 17:55:00
1:15 PM,78.8,66.2,65,29.84,10.0,SSW,21.9,29.9,N/A,,Overcast,200,2013-10-11 18:15:00
1:35 PM,77.5,66.0,68,29.84,10.0,South,11.5,-,N/A,,Overcast,190,2013-10-11 18:35:00
1:55 PM,79.0,66.6,66,29.82,10.0,South,12.7,18.4,N/A,,Mostly Cloudy,180,2013-10-11 18:55:00
2:15 PM,80.8,66.4,61,29.82,10.0,South,17.3,25.3,N/A,,Mostly Cloudy,190,2013-10-11 19:15:00
2:35 PM,79.5,66.2,64,29.82,10.0,South,15.0,24.2,N/A,,Overcast,180,2013-10-11 19:35:00
2:55 PM,80.8,66.2,61,29.81,10.0,South,17.3,23.0,N/A,,Overcast,190,2013-10-11 19:55:00
3:15 PM,82.2,66.6,59,29.81,10.0,South,16.1,24.2,N/A,,Overcast,190,2013-10-11 20:15:00
3:35 PM,81.0,66.4,61,29.81,10.0,South,15.0,21.9,N/A,,Overcast,170,2013-10-11 20:35:00
3:55 PM,82.9,67.1,59,29.81,10.0,South,15.0,21.9,N/A,,Mostly Cloudy,190,2013-10-11 20:55:00
4:15 PM,82.4,66.7,59,29.81,10.0,South,13.8,23.0,N/A,,Scattered Clouds,170,2013-10-11 21:15:00
4:35 PM,81.5,66.4,60,29.80,10.0,SSE,13.8,25.3,N/A,,Scattered Clouds,160,2013-10-11 21:35:00
4:55 PM,81.9,66.2,59,29.80,10.0,SSW,16.1,20.7,N/A,,Scattered Clouds,200,2013-10-11 21:55:00
5:15 PM,81.5,66.2,60,29.81,10.0,South,13.8,25.3,N/A,,Scattered Clouds,170,2013-10-11 22:15:00
5:35 PM,81.0,66.6,61,29.81,10.0,South,16.1,24.2,N/A,,Scattered Clouds,170,2013-10-11 22:35:00
5:55 PM,80.2,66.9,64,29.81,10.0,SSE,8.1,18.4,N/A,,Clear,150,2013-10-11 22:55:00
6:15 PM,78.8,67.3,68,29.81,10.0,SSE,10.4,-,N/A,,Clear,150,2013-10-11 23:15:00
6:35 PM,77.2,66.9,71,29.81,10.0,SSE,9.2,-,N/A,,Clear,150,2013-10-11 23:35:00
6:55 PM,75.4,66.9,75,29.82,10.0,SSE,9.2,-,N/A,,Clear,150,2013-10-11 23:55:00
7:15 PM,73.4,66.9,80,29.82,10.0,SSE,6.9,-,N/A,,Clear,150,2013-10-12 00:15:00
7:35 PM,72.5,66.7,82,29.83,10.0,North,-9999.0,-,N/A,,Clear,0,2013-10-12 00:35:00
7:55 PM,71.6,66.7,85,29.83,10.0,ESE,9.2,18.4,N/A,,Clear,120,2013-10-12 00:55:00
8:15 PM,71.4,67.1,86,29.84,10.0,ESE,9.2,-,N/A,,Clear,120,2013-10-12 01:15:00
8:35 PM,70.7,67.1,88,29.84,10.0,ESE,8.1,-,N/A,,Clear,120,2013-10-12 01:35:00
8:55 PM,69.8,66.7,90,29.85,10.0,East,9.2,-,N/A,,Clear,100,2013-10-12 01:55:00
9:15 PM,69.6,66.6,90,29.85,10.0,SE,9.2,-,N/A,,Clear,130,2013-10-12 02:15:00
9:35 PM,69.8,67.1,91,29.86,10.0,SSE,9.2,-,N/A,,Clear,160,2013-10-12 02:35:00
9:55 PM,70.3,67.3,90,29.86,10.0,South,11.5,-,N/A,,Clear,180,2013-10-12 02:55:00
10:15 PM,70.2,67.3,91,29.86,10.0,South,10.4,-,N/A,,Clear,170,2013-10-12 03:15:00
10:35 PM,70.3,67.5,91,29.87,10.0,South,11.5,-,N/A,,Clear,180,2013-10-12 03:35:00
10:55 PM,70.0,67.5,92,29.87,10.0,South,12.7,-,N/A,,Clear,180,2013-10-12 03:55:00
11:15 PM,70.0,67.3,91,29.87,10.0,South,11.5,-,N/A,,Clear,180,2013-10-12 04:15:00
11:35 PM,69.8,67.3,92,29.88,10.0,South,11.5,-,N/A,,Clear,190,2013-10-12 04:35:00
11:55 PM,69.3,67.1,93,29.87,10.0,South,11.5,-,N/A,,Clear,190,2013-10-12 04:55:00